sensor_id;sensor_type;location;lat;lon;timestamp;P1;durP1;ratioP1;P2;durP2;ratioP2
11504;SDS011;5809;53.262;10.408;2022-12-18T00:02:08;26.77;;;19.50;;
11504;SDS011;5809;53.262;10.408;2022-12-18T00:04:37;27.60;;;18.03;;
11504;SDS011;5809;53.262;10.408;2022-12-18T00:07:04;26.00;;;18.37;;
11504;SDS011;5809;53.262;10.408;2022-12-18T00:09:31;25.83;;;19.97;;
11504;SDS011;5809;53.262;10.408;2022-12-18T00:11:58;27.50;;;20.30;;
11504;SDS011;5809;53.262;10.408;2022-12-18T00:14:25;31.40;;;20.03;;
11504;SDS011;5809;53.262;10.408;2022-12-18T00:16:52;29.83;;;20.90;;
11504;SDS011;5809;53.262;10.408;2022-12-18T00:19:19;29.07;;;21.20;;
11504;SDS011;5809;53.262;10.408;2022-12-18T00:21:48;29.23;;;22.43;;
11504;SDS011;5809;53.262;10.408;2022-12-18T00:24:15;26.80;;;19.33;;
11504;SDS011;5809;53.262;10.408;2022-12-18T00:26:42;31.07;;;22.93;;
11504;SDS011;5809;53.262;10.408;2022-12-18T00:29:10;32.03;;;23.13;;
11504;SDS011;5809;53.262;10.408;2022-12-18T00:31:39;30.93;;;21.27;;
11504;SDS011;5809;53.262;10.408;2022-12-18T00:34:08;33.00;;;21.77;;
11504;SDS011;5809;53.262;10.408;2022-12-18T00:36:36;31.13;;;22.63;;
11504;SDS011;5809;53.262;10.408;2022-12-18T00:39:05;29.93;;;21.70;;
11504;SDS011;5809;53.262;10.408;2022-12-18T00:41:32;30.17;;;21.60;;
11504;SDS011;5809;53.262;10.408;2022-12-18T00:44:17;32.77;;;22.73;;
11504;SDS011;5809;53.262;10.408;2022-12-18T00:46:45;28.10;;;21.97;;
11504;SDS011;5809;53.262;10.408;2022-12-18T00:49:12;29.40;;;20.03;;
11504;SDS011;5809;53.262;10.408;2022-12-18T00:51:40;30.37;;;21.30;;
11504;SDS011;5809;53.262;10.408;2022-12-18T00:54:08;33.40;;;22.00;;
11504;SDS011;5809;53.262;10.408;2022-12-18T00:56:36;33.70;;;21.23;;
11504;SDS011;5809;53.262;10.408;2022-12-18T00:59:03;32.47;;;21.37;;
11504;SDS011;5809;53.262;10.408;2022-12-18T01:01:31;28.87;;;20.57;;
11504;SDS011;5809;53.262;10.408;2022-12-18T01:03:59;33.50;;;21.33;;
11504;SDS011;5809;53.262;10.408;2022-12-18T01:06:26;33.27;;;21.63;;
11504;SDS011;5809;53.262;10.408;2022-12-18T01:08:53;29.70;;;22.80;;
11504;SDS011;5809;53.262;10.408;2022-12-18T01:11:22;29.90;;;23.50;;
11504;SDS011;5809;53.262;10.408;2022-12-18T01:13:49;36.40;;;24.50;;
11504;SDS011;5809;53.262;10.408;2022-12-18T01:16:18;32.50;;;22.87;;
11504;SDS011;5809;53.262;10.408;2022-12-18T01:18:45;32.53;;;24.10;;
11504;SDS011;5809;53.262;10.408;2022-12-18T01:21:13;33.63;;;23.03;;
11504;SDS011;5809;53.262;10.408;2022-12-18T01:23:42;31.20;;;21.93;;
11504;SDS011;5809;53.262;10.408;2022-12-18T01:26:10;35.37;;;21.97;;
11504;SDS011;5809;53.262;10.408;2022-12-18T01:28:39;31.17;;;23.07;;
11504;SDS011;5809;53.262;10.408;2022-12-18T01:31:10;31.73;;;22.77;;
11504;SDS011;5809;53.262;10.408;2022-12-18T01:33:37;32.93;;;24.53;;
11504;SDS011;5809;53.262;10.408;2022-12-18T01:36:05;34.87;;;22.77;;
11504;SDS011;5809;53.262;10.408;2022-12-18T01:38:32;36.93;;;25.27;;
11504;SDS011;5809;53.262;10.408;2022-12-18T01:40:59;31.57;;;23.67;;
11504;SDS011;5809;53.262;10.408;2022-12-18T01:43:47;32.40;;;22.37;;
11504;SDS011;5809;53.262;10.408;2022-12-18T01:46:16;32.67;;;21.87;;
11504;SDS011;5809;53.262;10.408;2022-12-18T01:48:44;29.77;;;22.80;;
11504;SDS011;5809;53.262;10.408;2022-12-18T01:51:11;30.10;;;22.90;;
11504;SDS011;5809;53.262;10.408;2022-12-18T01:53:39;31.07;;;22.03;;
11504;SDS011;5809;53.262;10.408;2022-12-18T01:56:07;34.77;;;21.13;;
11504;SDS011;5809;53.262;10.408;2022-12-18T01:58:36;38.53;;;22.50;;
11504;SDS011;5809;53.262;10.408;2022-12-18T02:01:08;33.50;;;23.77;;
11504;SDS011;5809;53.262;10.408;2022-12-18T02:03:35;30.20;;;22.33;;
11504;SDS011;5809;53.262;10.408;2022-12-18T02:06:05;33.10;;;23.40;;
11504;SDS011;5809;53.262;10.408;2022-12-18T02:08:36;35.33;;;23.10;;
11504;SDS011;5809;53.262;10.408;2022-12-18T02:11:09;33.40;;;21.30;;
11504;SDS011;5809;53.262;10.408;2022-12-18T02:13:40;32.67;;;23.60;;
11504;SDS011;5809;53.262;10.408;2022-12-18T02:16:10;33.07;;;24.30;;
11504;SDS011;5809;53.262;10.408;2022-12-18T02:18:41;37.30;;;24.43;;
11504;SDS011;5809;53.262;10.408;2022-12-18T02:21:12;36.13;;;23.50;;
11504;SDS011;5809;53.262;10.408;2022-12-18T02:23:47;36.30;;;24.90;;
11504;SDS011;5809;53.262;10.408;2022-12-18T02:26:19;37.13;;;24.27;;
11504;SDS011;5809;53.262;10.408;2022-12-18T02:28:49;37.97;;;25.87;;
11504;SDS011;5809;53.262;10.408;2022-12-18T02:31:20;35.97;;;24.63;;
11504;SDS011;5809;53.262;10.408;2022-12-18T02:33:49;34.77;;;25.03;;
11504;SDS011;5809;53.262;10.408;2022-12-18T02:36:16;37.73;;;25.87;;
11504;SDS011;5809;53.262;10.408;2022-12-18T02:38:45;36.77;;;25.17;;
11504;SDS011;5809;53.262;10.408;2022-12-18T02:41:13;37.20;;;26.07;;
11504;SDS011;5809;53.262;10.408;2022-12-18T02:43:42;35.47;;;25.20;;
11504;SDS011;5809;53.262;10.408;2022-12-18T02:46:22;38.17;;;26.00;;
11504;SDS011;5809;53.262;10.408;2022-12-18T02:48:51;36.07;;;24.90;;
11504;SDS011;5809;53.262;10.408;2022-12-18T02:51:21;35.23;;;25.83;;
11504;SDS011;5809;53.262;10.408;2022-12-18T02:53:51;36.63;;;25.03;;
11504;SDS011;5809;53.262;10.408;2022-12-18T02:56:21;38.20;;;25.13;;
11504;SDS011;5809;53.262;10.408;2022-12-18T02:58:53;33.33;;;25.30;;
11504;SDS011;5809;53.262;10.408;2022-12-18T03:01:24;35.77;;;25.53;;
11504;SDS011;5809;53.262;10.408;2022-12-18T03:03:55;36.33;;;26.73;;
11504;SDS011;5809;53.262;10.408;2022-12-18T03:06:23;35.23;;;25.40;;
11504;SDS011;5809;53.262;10.408;2022-12-18T03:08:54;36.50;;;25.90;;
11504;SDS011;5809;53.262;10.408;2022-12-18T03:11:22;37.63;;;26.30;;
11504;SDS011;5809;53.262;10.408;2022-12-18T03:14:11;35.47;;;25.20;;
11504;SDS011;5809;53.262;10.408;2022-12-18T03:16:39;34.63;;;25.47;;
11504;SDS011;5809;53.262;10.408;2022-12-18T03:19:08;35.60;;;26.90;;
11504;SDS011;5809;53.262;10.408;2022-12-18T03:21:38;37.80;;;24.93;;
11504;SDS011;5809;53.262;10.408;2022-12-18T03:24:07;38.87;;;24.90;;
11504;SDS011;5809;53.262;10.408;2022-12-18T03:26:35;35.57;;;26.10;;
11504;SDS011;5809;53.262;10.408;2022-12-18T03:29:04;37.00;;;26.30;;
11504;SDS011;5809;53.262;10.408;2022-12-18T03:31:35;34.07;;;24.87;;
11504;SDS011;5809;53.262;10.408;2022-12-18T03:34:04;39.60;;;27.10;;
11504;SDS011;5809;53.262;10.408;2022-12-18T03:36:35;38.43;;;25.77;;
11504;SDS011;5809;53.262;10.408;2022-12-18T03:39:02;35.13;;;25.20;;
11504;SDS011;5809;53.262;10.408;2022-12-18T03:41:31;39.13;;;25.87;;
11504;SDS011;5809;53.262;10.408;2022-12-18T03:44:00;38.47;;;25.93;;
11504;SDS011;5809;53.262;10.408;2022-12-18T03:46:33;36.43;;;24.97;;
11504;SDS011;5809;53.262;10.408;2022-12-18T03:49:08;36.77;;;24.57;;
11504;SDS011;5809;53.262;10.408;2022-12-18T03:51:37;34.03;;;25.60;;
11504;SDS011;5809;53.262;10.408;2022-12-18T03:54:06;36.73;;;25.67;;
11504;SDS011;5809;53.262;10.408;2022-12-18T03:56:35;34.23;;;24.50;;
11504;SDS011;5809;53.262;10.408;2022-12-18T03:59:03;40.53;;;24.53;;
11504;SDS011;5809;53.262;10.408;2022-12-18T04:01:32;41.10;;;26.37;;
11504;SDS011;5809;53.262;10.408;2022-12-18T04:04:02;37.27;;;25.17;;
11504;SDS011;5809;53.262;10.408;2022-12-18T04:06:30;34.93;;;24.60;;
11504;SDS011;5809;53.262;10.408;2022-12-18T04:09:01;36.83;;;26.67;;
11504;SDS011;5809;53.262;10.408;2022-12-18T04:11:28;36.33;;;25.23;;
11504;SDS011;5809;53.262;10.408;2022-12-18T04:13:56;38.97;;;26.13;;
11504;SDS011;5809;53.262;10.408;2022-12-18T04:16:23;40.40;;;26.33;;
11504;SDS011;5809;53.262;10.408;2022-12-18T04:18:51;37.63;;;27.57;;
11504;SDS011;5809;53.262;10.408;2022-12-18T04:21:19;40.13;;;26.77;;
11504;SDS011;5809;53.262;10.408;2022-12-18T04:23:47;39.77;;;27.77;;
11504;SDS011;5809;53.262;10.408;2022-12-18T04:26:14;40.60;;;27.63;;
11504;SDS011;5809;53.262;10.408;2022-12-18T04:28:42;38.07;;;28.07;;
11504;SDS011;5809;53.262;10.408;2022-12-18T04:31:09;38.80;;;27.30;;
11504;SDS011;5809;53.262;10.408;2022-12-18T04:33:36;40.37;;;25.00;;
11504;SDS011;5809;53.262;10.408;2022-12-18T04:36:03;35.73;;;25.87;;
11504;SDS011;5809;53.262;10.408;2022-12-18T04:38:32;40.50;;;28.37;;
11504;SDS011;5809;53.262;10.408;2022-12-18T04:40:59;36.93;;;26.30;;
11504;SDS011;5809;53.262;10.408;2022-12-18T04:43:26;37.33;;;26.13;;
11504;SDS011;5809;53.262;10.408;2022-12-18T04:45:54;35.40;;;25.37;;
11504;SDS011;5809;53.262;10.408;2022-12-18T04:48:27;39.20;;;25.87;;
11504;SDS011;5809;53.262;10.408;2022-12-18T04:50:54;38.13;;;25.53;;
11504;SDS011;5809;53.262;10.408;2022-12-18T04:53:22;39.50;;;26.87;;
11504;SDS011;5809;53.262;10.408;2022-12-18T04:55:50;35.90;;;24.23;;
11504;SDS011;5809;53.262;10.408;2022-12-18T04:58:17;35.17;;;25.60;;
11504;SDS011;5809;53.262;10.408;2022-12-18T05:00:44;38.33;;;25.33;;
11504;SDS011;5809;53.262;10.408;2022-12-18T05:03:11;38.73;;;27.17;;
11504;SDS011;5809;53.262;10.408;2022-12-18T05:05:39;37.20;;;26.17;;
11504;SDS011;5809;53.262;10.408;2022-12-18T05:08:06;40.67;;;26.83;;
11504;SDS011;5809;53.262;10.408;2022-12-18T05:10:33;36.17;;;26.00;;
11504;SDS011;5809;53.262;10.408;2022-12-18T05:13:01;37.80;;;26.93;;
11504;SDS011;5809;53.262;10.408;2022-12-18T05:15:29;38.90;;;26.60;;
11504;SDS011;5809;53.262;10.408;2022-12-18T05:17:56;40.93;;;27.20;;
11504;SDS011;5809;53.262;10.408;2022-12-18T05:20:24;35.47;;;25.53;;
11504;SDS011;5809;53.262;10.408;2022-12-18T05:22:51;38.37;;;26.83;;
11504;SDS011;5809;53.262;10.408;2022-12-18T05:25:19;37.13;;;25.63;;
11504;SDS011;5809;53.262;10.408;2022-12-18T05:27:46;38.23;;;26.37;;
11504;SDS011;5809;53.262;10.408;2022-12-18T05:30:15;38.47;;;25.70;;
11504;SDS011;5809;53.262;10.408;2022-12-18T05:32:42;38.97;;;25.67;;
11504;SDS011;5809;53.262;10.408;2022-12-18T05:35:10;37.20;;;25.60;;
11504;SDS011;5809;53.262;10.408;2022-12-18T05:37:37;42.87;;;27.17;;
11504;SDS011;5809;53.262;10.408;2022-12-18T05:40:05;37.20;;;26.37;;
11504;SDS011;5809;53.262;10.408;2022-12-18T05:42:32;39.83;;;27.30;;
11504;SDS011;5809;53.262;10.408;2022-12-18T05:44:59;39.17;;;27.27;;
11504;SDS011;5809;53.262;10.408;2022-12-18T05:47:28;42.60;;;26.77;;
11504;SDS011;5809;53.262;10.408;2022-12-18T05:49:55;38.73;;;26.20;;
11504;SDS011;5809;53.262;10.408;2022-12-18T05:52:22;41.17;;;26.70;;
11504;SDS011;5809;53.262;10.408;2022-12-18T05:54:50;39.30;;;25.73;;
11504;SDS011;5809;53.262;10.408;2022-12-18T05:57:17;39.67;;;27.00;;
11504;SDS011;5809;53.262;10.408;2022-12-18T05:59:44;40.03;;;27.00;;
11504;SDS011;5809;53.262;10.408;2022-12-18T06:02:11;34.70;;;25.73;;
11504;SDS011;5809;53.262;10.408;2022-12-18T06:04:40;39.13;;;26.33;;
11504;SDS011;5809;53.262;10.408;2022-12-18T06:07:07;37.00;;;25.67;;
11504;SDS011;5809;53.262;10.408;2022-12-18T06:09:34;39.23;;;25.43;;
11504;SDS011;5809;53.262;10.408;2022-12-18T06:12:01;39.53;;;25.17;;
11504;SDS011;5809;53.262;10.408;2022-12-18T06:14:28;38.23;;;26.37;;
11504;SDS011;5809;53.262;10.408;2022-12-18T06:16:55;37.00;;;24.67;;
11504;SDS011;5809;53.262;10.408;2022-12-18T06:19:23;39.33;;;24.83;;
11504;SDS011;5809;53.262;10.408;2022-12-18T06:21:51;39.30;;;25.43;;
11504;SDS011;5809;53.262;10.408;2022-12-18T06:24:18;39.03;;;24.97;;
11504;SDS011;5809;53.262;10.408;2022-12-18T06:26:45;37.30;;;24.70;;
11504;SDS011;5809;53.262;10.408;2022-12-18T06:29:13;34.63;;;24.53;;
11504;SDS011;5809;53.262;10.408;2022-12-18T06:31:40;39.27;;;26.43;;
11504;SDS011;5809;53.262;10.408;2022-12-18T06:34:07;40.77;;;25.67;;
11504;SDS011;5809;53.262;10.408;2022-12-18T06:36:34;37.10;;;26.37;;
11504;SDS011;5809;53.262;10.408;2022-12-18T06:39:02;36.43;;;25.33;;
11504;SDS011;5809;53.262;10.408;2022-12-18T06:41:30;37.37;;;25.77;;
11504;SDS011;5809;53.262;10.408;2022-12-18T06:43:57;38.93;;;25.67;;
11504;SDS011;5809;53.262;10.408;2022-12-18T06:46:24;36.83;;;26.13;;
11504;SDS011;5809;53.262;10.408;2022-12-18T06:48:52;37.10;;;25.63;;
11504;SDS011;5809;53.262;10.408;2022-12-18T06:51:19;39.83;;;25.13;;
11504;SDS011;5809;53.262;10.408;2022-12-18T06:53:46;37.33;;;26.03;;
11504;SDS011;5809;53.262;10.408;2022-12-18T06:56:15;37.37;;;26.43;;
11504;SDS011;5809;53.262;10.408;2022-12-18T06:58:42;41.50;;;26.93;;
11504;SDS011;5809;53.262;10.408;2022-12-18T07:01:10;40.30;;;26.33;;
11504;SDS011;5809;53.262;10.408;2022-12-18T07:03:38;43.50;;;27.40;;
11504;SDS011;5809;53.262;10.408;2022-12-18T07:06:05;40.03;;;27.57;;
11504;SDS011;5809;53.262;10.408;2022-12-18T07:08:33;41.10;;;26.53;;
11504;SDS011;5809;53.262;10.408;2022-12-18T07:11:02;41.30;;;26.93;;
11504;SDS011;5809;53.262;10.408;2022-12-18T07:13:31;40.93;;;27.87;;
11504;SDS011;5809;53.262;10.408;2022-12-18T07:16:03;43.87;;;27.77;;
11504;SDS011;5809;53.262;10.408;2022-12-18T07:18:30;39.73;;;26.00;;
11504;SDS011;5809;53.262;10.408;2022-12-18T07:20:57;37.47;;;27.17;;
11504;SDS011;5809;53.262;10.408;2022-12-18T07:23:24;42.93;;;26.37;;
11504;SDS011;5809;53.262;10.408;2022-12-18T07:25:51;40.80;;;27.97;;
11504;SDS011;5809;53.262;10.408;2022-12-18T07:28:18;41.43;;;27.97;;
11504;SDS011;5809;53.262;10.408;2022-12-18T07:30:47;45.90;;;30.60;;
11504;SDS011;5809;53.262;10.408;2022-12-18T07:33:14;41.97;;;27.33;;
11504;SDS011;5809;53.262;10.408;2022-12-18T07:35:41;44.60;;;29.47;;
11504;SDS011;5809;53.262;10.408;2022-12-18T07:38:08;40.40;;;27.80;;
11504;SDS011;5809;53.262;10.408;2022-12-18T07:40:36;40.20;;;27.87;;
11504;SDS011;5809;53.262;10.408;2022-12-18T07:43:03;40.83;;;26.47;;
11504;SDS011;5809;53.262;10.408;2022-12-18T07:45:30;37.23;;;26.37;;
11504;SDS011;5809;53.262;10.408;2022-12-18T07:47:59;36.50;;;25.93;;
11504;SDS011;5809;53.262;10.408;2022-12-18T07:50:26;38.60;;;25.30;;
11504;SDS011;5809;53.262;10.408;2022-12-18T07:52:53;35.87;;;24.23;;
11504;SDS011;5809;53.262;10.408;2022-12-18T07:55:20;37.63;;;25.77;;
11504;SDS011;5809;53.262;10.408;2022-12-18T07:57:47;40.70;;;25.63;;
11504;SDS011;5809;53.262;10.408;2022-12-18T08:00:15;43.63;;;28.10;;
11504;SDS011;5809;53.262;10.408;2022-12-18T08:02:42;63.43;;;52.13;;
11504;SDS011;5809;53.262;10.408;2022-12-18T08:05:11;45.33;;;27.70;;
11504;SDS011;5809;53.262;10.408;2022-12-18T08:07:38;37.93;;;25.60;;
11504;SDS011;5809;53.262;10.408;2022-12-18T08:10:05;41.07;;;26.13;;
11504;SDS011;5809;53.262;10.408;2022-12-18T08:12:33;38.53;;;26.80;;
11504;SDS011;5809;53.262;10.408;2022-12-18T08:15:00;38.43;;;25.97;;
11504;SDS011;5809;53.262;10.408;2022-12-18T08:17:28;40.20;;;25.83;;
11504;SDS011;5809;53.262;10.408;2022-12-18T08:19:54;40.27;;;25.47;;
11504;SDS011;5809;53.262;10.408;2022-12-18T08:22:23;37.87;;;25.33;;
11504;SDS011;5809;53.262;10.408;2022-12-18T08:24:50;36.80;;;25.40;;
11504;SDS011;5809;53.262;10.408;2022-12-18T08:27:17;39.53;;;26.90;;
11504;SDS011;5809;53.262;10.408;2022-12-18T08:29:44;35.37;;;25.73;;
11504;SDS011;5809;53.262;10.408;2022-12-18T08:32:11;37.00;;;25.83;;
11504;SDS011;5809;53.262;10.408;2022-12-18T08:34:39;41.67;;;27.03;;
11504;SDS011;5809;53.262;10.408;2022-12-18T08:37:06;37.60;;;26.03;;
11504;SDS011;5809;53.262;10.408;2022-12-18T08:39:35;33.43;;;23.47;;
11504;SDS011;5809;53.262;10.408;2022-12-18T08:42:02;33.30;;;22.90;;
11504;SDS011;5809;53.262;10.408;2022-12-18T08:44:47;29.83;;;20.77;;
11504;SDS011;5809;53.262;10.408;2022-12-18T08:47:14;30.20;;;20.37;;
11504;SDS011;5809;53.262;10.408;2022-12-18T08:49:41;35.50;;;22.93;;
11504;SDS011;5809;53.262;10.408;2022-12-18T08:52:08;33.80;;;20.93;;
11504;SDS011;5809;53.262;10.408;2022-12-18T08:54:37;50.57;;;40.10;;
11504;SDS011;5809;53.262;10.408;2022-12-18T08:57:04;32.70;;;18.33;;
11504;SDS011;5809;53.262;10.408;2022-12-18T08:59:31;29.10;;;18.30;;
11504;SDS011;5809;53.262;10.408;2022-12-18T09:01:58;26.43;;;17.73;;
11504;SDS011;5809;53.262;10.408;2022-12-18T09:04:25;29.60;;;18.53;;
11504;SDS011;5809;53.262;10.408;2022-12-18T09:06:55;27.17;;;16.40;;
11504;SDS011;5809;53.262;10.408;2022-12-18T09:09:22;27.33;;;15.90;;
11504;SDS011;5809;53.262;10.408;2022-12-18T09:11:51;25.73;;;16.93;;
11504;SDS011;5809;53.262;10.408;2022-12-18T09:14:18;26.10;;;15.10;;
11504;SDS011;5809;53.262;10.408;2022-12-18T09:16:45;23.87;;;14.43;;
11504;SDS011;5809;53.262;10.408;2022-12-18T09:19:12;27.00;;;15.93;;
11504;SDS011;5809;53.262;10.408;2022-12-18T09:21:39;23.33;;;15.07;;
11504;SDS011;5809;53.262;10.408;2022-12-18T09:24:08;23.33;;;14.00;;
11504;SDS011;5809;53.262;10.408;2022-12-18T09:26:38;22.50;;;14.30;;
11504;SDS011;5809;53.262;10.408;2022-12-18T09:29:06;26.57;;;15.43;;
11504;SDS011;5809;53.262;10.408;2022-12-18T09:31:34;26.37;;;15.70;;
11504;SDS011;5809;53.262;10.408;2022-12-18T09:34:01;23.17;;;14.27;;
11504;SDS011;5809;53.262;10.408;2022-12-18T09:36:32;25.47;;;15.57;;
11504;SDS011;5809;53.262;10.408;2022-12-18T09:38:59;27.30;;;14.93;;
11504;SDS011;5809;53.262;10.408;2022-12-18T09:41:33;23.63;;;15.07;;
11504;SDS011;5809;53.262;10.408;2022-12-18T09:44:11;22.67;;;14.67;;
11504;SDS011;5809;53.262;10.408;2022-12-18T09:46:42;26.20;;;15.77;;
11504;SDS011;5809;53.262;10.408;2022-12-18T09:49:11;25.43;;;15.23;;
11504;SDS011;5809;53.262;10.408;2022-12-18T09:51:40;23.77;;;14.57;;
11504;SDS011;5809;53.262;10.408;2022-12-18T09:54:11;29.80;;;16.90;;
11504;SDS011;5809;53.262;10.408;2022-12-18T09:56:40;29.57;;;19.40;;
11504;SDS011;5809;53.262;10.408;2022-12-18T09:59:14;28.23;;;18.57;;
11504;SDS011;5809;53.262;10.408;2022-12-18T10:01:43;28.43;;;18.20;;
11504;SDS011;5809;53.262;10.408;2022-12-18T10:04:10;29.80;;;17.43;;
11504;SDS011;5809;53.262;10.408;2022-12-18T10:06:38;29.73;;;17.13;;
11504;SDS011;5809;53.262;10.408;2022-12-18T10:09:14;28.13;;;17.50;;
11504;SDS011;5809;53.262;10.408;2022-12-18T10:11:46;27.77;;;16.60;;
11504;SDS011;5809;53.262;10.408;2022-12-18T10:14:18;27.77;;;17.37;;
11504;SDS011;5809;53.262;10.408;2022-12-18T10:16:52;29.47;;;18.07;;
11504;SDS011;5809;53.262;10.408;2022-12-18T10:22:18;27.63;;;16.83;;
11504;SDS011;5809;53.262;10.408;2022-12-18T10:24:59;28.83;;;17.33;;
11504;SDS011;5809;53.262;10.408;2022-12-18T10:27:29;26.47;;;17.07;;
11504;SDS011;5809;53.262;10.408;2022-12-18T10:29:58;32.77;;;19.80;;
11504;SDS011;5809;53.262;10.408;2022-12-18T10:32:28;28.60;;;17.93;;
11504;SDS011;5809;53.262;10.408;2022-12-18T10:34:57;28.93;;;17.57;;
11504;SDS011;5809;53.262;10.408;2022-12-18T10:37:25;26.47;;;16.73;;
11504;SDS011;5809;53.262;10.408;2022-12-18T10:40:05;27.90;;;17.17;;
11504;SDS011;5809;53.262;10.408;2022-12-18T10:42:35;28.13;;;18.37;;
11504;SDS011;5809;53.262;10.408;2022-12-18T10:45:08;27.33;;;17.47;;
11504;SDS011;5809;53.262;10.408;2022-12-18T10:47:35;26.47;;;16.20;;
11504;SDS011;5809;53.262;10.408;2022-12-18T10:50:10;27.10;;;16.67;;
11504;SDS011;5809;53.262;10.408;2022-12-18T10:52:44;27.23;;;16.83;;
11504;SDS011;5809;53.262;10.408;2022-12-18T10:55:19;28.10;;;16.40;;
11504;SDS011;5809;53.262;10.408;2022-12-18T10:57:47;27.60;;;16.67;;
11504;SDS011;5809;53.262;10.408;2022-12-18T11:00:26;25.27;;;15.63;;
11504;SDS011;5809;53.262;10.408;2022-12-18T11:02:53;28.57;;;17.07;;
11504;SDS011;5809;53.262;10.408;2022-12-18T11:05:28;25.83;;;15.53;;
11504;SDS011;5809;53.262;10.408;2022-12-18T11:07:56;24.93;;;15.43;;
11504;SDS011;5809;53.262;10.408;2022-12-18T11:10:25;25.20;;;15.07;;
11504;SDS011;5809;53.262;10.408;2022-12-18T11:12:56;23.27;;;14.90;;
11504;SDS011;5809;53.262;10.408;2022-12-18T11:15:36;26.43;;;15.80;;
11504;SDS011;5809;53.262;10.408;2022-12-18T11:18:13;25.87;;;16.43;;
11504;SDS011;5809;53.262;10.408;2022-12-18T11:20:43;24.40;;;14.93;;
11504;SDS011;5809;53.262;10.408;2022-12-18T11:23:17;29.37;;;15.90;;
11504;SDS011;5809;53.262;10.408;2022-12-18T11:25:50;22.87;;;14.73;;
11504;SDS011;5809;53.262;10.408;2022-12-18T11:28:25;27.03;;;15.17;;
11504;SDS011;5809;53.262;10.408;2022-12-18T11:33:43;25.73;;;15.03;;
11504;SDS011;5809;53.262;10.408;2022-12-18T11:36:11;25.57;;;16.33;;
11504;SDS011;5809;53.262;10.408;2022-12-18T11:38:40;23.27;;;14.33;;
11504;SDS011;5809;53.262;10.408;2022-12-18T11:41:13;24.80;;;14.67;;
11504;SDS011;5809;53.262;10.408;2022-12-18T11:43:42;24.93;;;15.10;;
11504;SDS011;5809;53.262;10.408;2022-12-18T11:46:15;26.33;;;15.33;;
11504;SDS011;5809;53.262;10.408;2022-12-18T11:48:44;26.40;;;15.80;;
11504;SDS011;5809;53.262;10.408;2022-12-18T11:51:20;27.63;;;15.77;;
11504;SDS011;5809;53.262;10.408;2022-12-18T11:53:51;29.20;;;16.17;;
11504;SDS011;5809;53.262;10.408;2022-12-18T11:56:26;25.57;;;16.10;;
11504;SDS011;5809;53.262;10.408;2022-12-18T11:58:57;25.03;;;14.93;;
11504;SDS011;5809;53.262;10.408;2022-12-18T12:01:31;22.00;;;15.07;;
11504;SDS011;5809;53.262;10.408;2022-12-18T12:06:45;23.63;;;14.17;;
11504;SDS011;5809;53.262;10.408;2022-12-18T12:09:19;25.70;;;15.90;;
11504;SDS011;5809;53.262;10.408;2022-12-18T12:11:51;27.73;;;16.93;;
11504;SDS011;5809;53.262;10.408;2022-12-18T12:14:25;26.20;;;16.07;;
11504;SDS011;5809;53.262;10.408;2022-12-18T12:17:07;25.27;;;14.30;;
11504;SDS011;5809;53.262;10.408;2022-12-18T12:19:41;27.43;;;16.63;;
11504;SDS011;5809;53.262;10.408;2022-12-18T12:22:11;26.53;;;14.70;;
11504;SDS011;5809;53.262;10.408;2022-12-18T12:24:45;27.70;;;16.07;;
11504;SDS011;5809;53.262;10.408;2022-12-18T12:27:15;26.07;;;15.10;;
11504;SDS011;5809;53.262;10.408;2022-12-18T12:29:52;29.27;;;15.20;;
11504;SDS011;5809;53.262;10.408;2022-12-18T12:32:25;30.27;;;16.23;;
11504;SDS011;5809;53.262;10.408;2022-12-18T12:35:00;28.10;;;16.60;;
11504;SDS011;5809;53.262;10.408;2022-12-18T12:37:38;26.30;;;16.67;;
11504;SDS011;5809;53.262;10.408;2022-12-18T12:40:06;27.87;;;16.37;;
11504;SDS011;5809;53.262;10.408;2022-12-18T12:42:34;28.00;;;16.27;;
11504;SDS011;5809;53.262;10.408;2022-12-18T12:45:21;27.97;;;16.80;;
11504;SDS011;5809;53.262;10.408;2022-12-18T12:47:51;33.03;;;17.50;;
11504;SDS011;5809;53.262;10.408;2022-12-18T12:50:19;27.43;;;16.00;;
11504;SDS011;5809;53.262;10.408;2022-12-18T12:52:47;31.67;;;18.10;;
11504;SDS011;5809;53.262;10.408;2022-12-18T12:55:17;32.97;;;18.33;;
11504;SDS011;5809;53.262;10.408;2022-12-18T12:57:47;31.13;;;17.57;;
11504;SDS011;5809;53.262;10.408;2022-12-18T13:00:21;31.87;;;18.20;;
11504;SDS011;5809;53.262;10.408;2022-12-18T13:02:52;34.67;;;17.63;;
11504;SDS011;5809;53.262;10.408;2022-12-18T13:05:24;34.83;;;19.27;;
11504;SDS011;5809;53.262;10.408;2022-12-18T13:07:53;31.00;;;17.07;;
11504;SDS011;5809;53.262;10.408;2022-12-18T13:10:31;36.13;;;21.37;;
11504;SDS011;5809;53.262;10.408;2022-12-18T13:13:00;42.43;;;21.57;;
11504;SDS011;5809;53.262;10.408;2022-12-18T13:15:29;36.20;;;20.07;;
11504;SDS011;5809;53.262;10.408;2022-12-18T13:18:15;36.37;;;22.20;;
11504;SDS011;5809;53.262;10.408;2022-12-18T13:20:43;36.57;;;19.20;;
11504;SDS011;5809;53.262;10.408;2022-12-18T13:23:27;35.00;;;19.57;;
11504;SDS011;5809;53.262;10.408;2022-12-18T13:25:56;34.87;;;20.33;;
11504;SDS011;5809;53.262;10.408;2022-12-18T13:28:48;37.17;;;20.63;;
11504;SDS011;5809;53.262;10.408;2022-12-18T13:34:14;36.43;;;20.00;;
11504;SDS011;5809;53.262;10.408;2022-12-18T13:36:42;37.97;;;19.60;;
11504;SDS011;5809;53.262;10.408;2022-12-18T13:45:00;37.50;;;19.50;;
11504;SDS011;5809;53.262;10.408;2022-12-18T13:47:31;40.10;;;21.50;;
11504;SDS011;5809;53.262;10.408;2022-12-18T13:50:00;40.03;;;24.03;;
11504;SDS011;5809;53.262;10.408;2022-12-18T13:52:35;40.07;;;22.13;;
11504;SDS011;5809;53.262;10.408;2022-12-18T13:55:04;39.47;;;22.10;;
11504;SDS011;5809;53.262;10.408;2022-12-18T13:57:33;42.17;;;22.53;;
11504;SDS011;5809;53.262;10.408;2022-12-18T14:00:16;38.87;;;21.03;;
11504;SDS011;5809;53.262;10.408;2022-12-18T14:02:49;38.77;;;20.33;;
11504;SDS011;5809;53.262;10.408;2022-12-18T14:05:23;37.60;;;20.57;;
11504;SDS011;5809;53.262;10.408;2022-12-18T14:07:50;37.90;;;21.63;;
11504;SDS011;5809;53.262;10.408;2022-12-18T14:10:19;40.47;;;21.67;;
11504;SDS011;5809;53.262;10.408;2022-12-18T14:12:46;46.77;;;23.13;;
11504;SDS011;5809;53.262;10.408;2022-12-18T14:15:25;41.37;;;21.63;;
11504;SDS011;5809;53.262;10.408;2022-12-18T14:17:54;41.13;;;22.57;;
11504;SDS011;5809;53.262;10.408;2022-12-18T14:20:23;40.77;;;23.87;;
11504;SDS011;5809;53.262;10.408;2022-12-18T14:22:51;47.87;;;25.80;;
11504;SDS011;5809;53.262;10.408;2022-12-18T14:25:19;44.80;;;24.27;;
11504;SDS011;5809;53.262;10.408;2022-12-18T14:27:47;43.33;;;23.67;;
11504;SDS011;5809;53.262;10.408;2022-12-18T14:30:28;40.17;;;23.23;;
11504;SDS011;5809;53.262;10.408;2022-12-18T14:33:00;43.90;;;21.70;;
11504;SDS011;5809;53.262;10.408;2022-12-18T14:35:29;44.43;;;23.10;;
11504;SDS011;5809;53.262;10.408;2022-12-18T14:38:08;83.20;;;39.60;;
11504;SDS011;5809;53.262;10.408;2022-12-18T14:40:36;85.60;;;45.67;;
11504;SDS011;5809;53.262;10.408;2022-12-18T14:43:03;57.97;;;30.93;;
11504;SDS011;5809;53.262;10.408;2022-12-18T14:45:34;49.50;;;27.90;;
11504;SDS011;5809;53.262;10.408;2022-12-18T14:48:05;50.47;;;26.80;;
11504;SDS011;5809;53.262;10.408;2022-12-18T14:50:35;52.73;;;30.77;;
11504;SDS011;5809;53.262;10.408;2022-12-18T14:53:02;45.97;;;25.03;;